Time;durP1;ratioP1;P1;durP2;ratioP2;P2;SDS_P1;SDS_P2;PMS_P1;PMS_P2;Temp;Humidity;BMP_temperature;BMP_pressure;BME280_temperature;BME280_humidity;BME280_pressure;Samples;Min_cycle;Max_cycle;Signal;HPM_P1;HPM_P2
2023/08/14 00:00:55;;;;;;;6.50;5.13;;;;;;;29.97;51.31;100742.91;5093525;27;66360;-39
2023/08/14 00:03:25;;;;;;;5.78;5.38;;;;;;;30.01;51.94;100753.09;5088814;27;69918;-37
2023/08/14 00:05:55;;;;;;;8.73;5.30;;;;;;;30.01;52.45;100736.03;5094366;27;66192;-37
2023/08/14 00:08:26;;;;;;;14.75;6.38;;;;;;;30.10;53.68;100745.53;5089972;27;70468;-36
2023/08/14 00:10:56;;;;;;;7.38;6.78;;;;;;;30.16;55.15;100749.25;5093140;27;66265;-37
2023/08/14 00:13:26;;;;;;;6.57;6.07;;;;;;;30.22;57.06;100746.50;5097719;27;70703;-38
2023/08/14 00:15:57;;;;;;;13.57;6.93;;;;;;;30.28;57.90;100761.91;5069865;27;65442;-38
2023/08/14 00:18:27;;;;;;;8.75;6.30;;;;;;;30.31;58.40;100754.38;5093317;27;69218;-37
2023/08/14 00:20:57;;;;;;;5.97;5.55;;;;;;;30.23;59.15;100728.44;5093520;27;66318;-39
2023/08/14 00:23:27;;;;;;;6.80;6.20;;;;;;;30.44;59.91;100762.38;5092013;27;70049;-37
2023/08/14 00:25:57;;;;;;;8.82;6.55;;;;;;;30.42;59.98;100764.47;5097179;27;66632;-38
2023/08/14 00:28:28;;;;;;;8.00;6.03;;;;;;;30.49;59.74;100774.22;5100268;27;71256;-37
2023/08/14 00:30:58;;;;;;;12.20;6.72;;;;;;;30.54;60.05;100778.16;5099868;27;66644;-38
2023/08/14 00:33:28;;;;;;;6.20;5.70;;;;;;;30.57;60.36;100775.00;5092775;27;70343;-39
2023/08/14 00:35:59;;;;;;;7.05;6.43;;;;;;;30.48;60.42;100761.75;5077497;27;65672;-39
2023/08/14 00:38:29;;;;;;;8.27;6.55;;;;;;;30.61;60.12;100787.84;5093931;27;69545;-39
2023/08/14 00:40:59;;;;;;;8.93;6.00;;;;;;;30.62;60.21;100791.38;5095461;27;66379;-37
2023/08/14 00:43:30;;;;;;;11.43;6.00;;;;;;;30.64;60.17;100783.88;5090514;27;70205;-38
2023/08/14 00:46:00;;;;;;;9.68;6.00;;;;;;;30.66;60.23;100789.91;5095594;27;66758;-38
2023/08/14 00:48:31;;;;;;;11.57;6.65;;;;;;;30.65;60.52;100797.22;5079249;27;69979;-37
2023/08/14 00:51:02;;;;;;;9.13;6.13;;;;;;;30.70;60.32;100794.69;5098673;27;66881;-37
2023/08/14 00:53:32;;;;;;;5.80;5.40;;;;;;;30.69;60.78;100801.13;5088934;27;70070;-40
2023/08/14 00:56:03;;;;;;;6.03;5.50;;;;;;;30.69;60.68;100811.94;5078228;27;66855;-38
2023/08/14 00:58:34;;;;;;;5.80;5.30;;;;;;;30.75;60.61;100818.38;5098342;27;70345;-37
2023/08/14 01:01:07;;;;;;;6.43;5.30;;;;;;;30.23;60.67;100740.06;5098630;27;65751;-38
2023/08/14 01:03:38;;;;;;;9.63;5.40;;;;;;;30.79;60.53;100819.59;5082288;27;70472;-42
2023/08/14 01:06:08;;;;;;;6.05;5.47;;;;;;;30.72;61.13;100808.81;5081808;27;66603;-37
2023/08/14 01:08:39;;;;;;;6.30;5.82;;;;;;;30.81;60.65;100822.09;5098548;27;70167;-39
2023/08/14 01:11:36;;;;;;;6.47;5.32;;;;;;;30.25;60.84;100729.84;5098806;27;66091;-39
2023/08/14 01:14:33;;;;;;;5.95;5.40;;;;;;;30.84;60.76;100827.06;5096507;27;70482;-38
2023/08/14 01:17:14;;;;;;;6.72;5.38;;;;;;;30.88;60.73;100834.53;5096946;27;66756;-40
2023/08/14 01:19:49;;;;;;;6.07;4.93;;;;;;;30.54;61.25;100768.16;5088007;27;70131;-40
2023/08/14 01:22:38;;;;;;;8.05;5.22;;;;;;;30.94;61.10;100822.00;5097094;27;66243;-38
2023/08/14 01:25:47;;;;;;;5.03;4.63;;;;;;;30.74;61.31;100832.97;5098151;27;70239;-39
2023/08/14 01:28:29;;;;;;;6.03;5.20;;;;;;;30.97;61.27;100842.38;4988545;28;66896;-38
2023/08/14 01:31:00;;;;;;;6.63;5.00;;;;;;;31.00;61.28;100837.34;5015036;28;70216;-38
2023/08/14 01:33:30;;;;;;;8.25;4.70;;;;;;;31.03;61.23;100836.91;5060620;27;67298;-38
2023/08/14 01:36:50;;;;;;;5.88;4.57;;;;;;;30.88;61.26;100842.66;5080784;27;69583;-38
2023/08/14 01:39:28;;;;;;;4.55;4.15;;;;;;;30.58;61.17;100763.94;5094521;27;66006;-38
2023/08/14 01:42:12;;;;;;;4.85;4.43;;;;;;;30.69;61.22;100794.88;5087346;27;70727;-41
2023/08/14 01:44:45;;;;;;;4.90;4.40;;;;;;;31.09;61.37;100840.59;5098909;27;65908;-38
2023/08/14 01:47:18;;;;;;;5.05;3.65;;;;;;;31.14;61.43;100833.47;5095010;27;69988;-38
2023/08/14 01:49:51;;;;;;;4.70;4.30;;;;;;;30.63;61.63;100745.16;5097781;27;66064;-37
2023/08/14 01:52:24;;;;;;;5.45;4.43;;;;;;;31.11;61.70;100828.50;5079064;27;70579;-38
2023/08/14 01:55:02;;;;;;;6.28;4.05;;;;;;;31.03;61.52;100804.38;5079863;27;66912;-38
2023/08/14 01:57:33;;;;;;;4.28;3.97;;;;;;;31.24;61.69;100827.53;5082900;27;70055;-37
2023/08/14 02:00:05;;;;;;;5.63;3.97;;;;;;;30.92;62.07;100767.19;5081827;27;65753;-40
2023/08/14 02:02:48;;;;;;;5.93;3.75;;;;;;;31.31;61.86;100832.88;5097383;27;70294;-37
2023/08/14 02:05:20;;;;;;;8.98;4.10;;;;;;;31.28;61.66;100823.31;5079949;27;65392;-37
2023/08/14 02:07:50;;;;;;;6.72;4.70;;;;;;;31.24;62.07;100827.53;5082698;27;69369;-38
2023/08/14 02:10:21;;;;;;;4.43;3.90;;;;;;;31.36;61.83;100830.34;5101105;27;66128;-38
2023/08/14 02:13:03;;;;;;;6.53;4.20;;;;;;;31.21;61.89;100809.03;5100413;27;70134;-39
2023/08/14 02:15:36;;;;;;;4.57;3.63;;;;;;;31.43;61.72;100836.56;5087931;27;66223;-38
2023/08/14 02:18:07;;;;;;;5.43;3.40;;;;;;;31.46;62.14;100830.69;5093200;27;70431;-39
2023/08/14 02:20:45;;;;;;;6.15;3.63;;;;;;;30.89;62.08;100754.94;5098054;27;66645;-39
2023/08/14 02:23:18;;;;;;;;;;;;;;;31.13;63.46;100836.41;5100315;27;70450;-38
2023/08/14 02:25:49;;;;;;;3.70;3.40;;;;;;;31.50;61.98;100831.88;5097566;27;66486;-38
2023/08/14 02:28:21;;;;;;;4.18;3.78;;;;;;;31.49;62.14;100816.66;5081654;27;70376;-38
2023/08/14 02:30:52;;;;;;;4.25;3.45;;;;;;;31.54;61.96;100821.41;5079424;27;66521;-38
2023/08/14 02:33:22;;;;;;;4.05;3.35;;;;;;;31.63;62.04;100830.06;5097855;27;70413;-42
2023/08/14 02:35:54;;;;;;;5.68;3.30;;;;;;;31.64;61.91;100827.13;5069457;28;66166;-39
2023/08/14 02:38:25;;;;;;;3.60;3.30;;;;;;;31.68;61.74;100832.91;5080451;27;70013;-38
2023/08/14 02:40:55;;;;;;;4.22;3.45;;;;;;;31.72;62.07;100828.72;5070790;27;65764;-38
2023/08/14 02:43:28;;;;;;;3.50;3.17;;;;;;;31.74;62.09;100829.31;5087933;27;70844;-38
2023/08/14 02:46:01;;;;;;;4.30;3.88;;;;;;;31.73;62.08;100816.78;5098442;27;66010;-37
2023/08/14 02:48:32;;;;;;;4.22;3.60;;;;;;;31.79;62.05;100811.31;5088934;27;70541;-39
2023/08/14 02:51:02;;;;;;;3.30;3.00;;;;;;;31.76;62.04;100791.91;5089229;27;66514;-38
2023/08/14 02:53:32;;;;;;;5.78;3.22;;;;;;;31.69;62.10;100777.63;5080696;27;69602;-38
2023/08/14 02:56:03;;;;;;;3.53;3.00;;;;;;;31.85;61.73;100806.84;5083198;27;66424;-38
2023/08/14 02:58:35;;;;;;;6.22;3.45;;;;;;;31.91;62.20;100800.53;5082731;27;69856;-38
2023/08/14 03:01:05;;;;;;;5.57;3.83;;;;;;;31.89;62.14;100810.75;5093251;27;65964;-37
2023/08/14 03:03:36;;;;;;;6.97;3.08;;;;;;;31.96;61.91;100805.28;5073051;27;69178;-39
2023/08/14 03:06:08;;;;;;;4.32;3.53;;;;;;;31.98;61.71;100785.00;5070769;27;66087;-39
2023/08/14 03:08:39;;;;;;;3.78;3.20;;;;;;;31.85;62.02;100763.44;5101233;27;69604;-38
2023/08/14 03:11:09;;;;;;;4.20;3.65;;;;;;;32.04;61.97;100792.22;5083915;27;65393;-38
2023/08/14 03:13:39;;;;;;;7.10;3.40;;;;;;;32.05;62.06;100779.47;5093045;27;70597;-38
2023/08/14 03:16:09;;;;;;;3.95;3.20;;;;;;;32.10;61.94;100797.78;5076080;27;65127;-38
2023/08/14 03:18:40;;;;;;;3.05;2.75;;;;;;;32.13;62.00;100802.75;5086947;27;69925;-38
2023/08/14 03:21:11;;;;;;;3.63;3.30;;;;;;;31.99;62.02;100774.97;5091044;27;65781;-38
2023/08/14 03:23:41;;;;;;;6.95;3.10;;;;;;;32.18;61.81;100797.44;5082886;27;70382;-38
2023/08/14 03:26:11;;;;;;;3.50;3.13;;;;;;;32.21;61.87;100794.28;5082750;27;66177;-39
2023/08/14 03:28:42;;;;;;;5.35;3.30;;;;;;;32.21;61.77;100791.56;5071820;27;69470;-39
2023/08/14 03:31:13;;;;;;;2.80;2.60;;;;;;;32.24;61.98;100793.81;5081201;27;66173;-38
2023/08/14 03:33:44;;;;;;;6.20;3.22;;;;;;;32.27;61.85;100785.19;5078557;27;70033;-38
2023/08/14 03:36:15;;;;;;;5.68;3.08;;;;;;;32.30;61.82;100789.34;5089458;27;66435;-39
2023/08/14 03:38:45;;;;;;;3.63;3.33;;;;;;;32.31;61.73;100780.94;5078659;27;69261;-39
2023/08/14 03:41:15;;;;;;;3.33;3.03;;;;;;;32.29;62.02;100766.81;5071028;27;66222;-38
2023/08/14 03:43:46;;;;;;;3.25;2.95;;;;;;;32.38;61.60;100778.97;5081803;27;70077;-38
2023/08/14 03:46:16;;;;;;;4.63;2.53;;;;;;;32.39;61.58;100775.19;5092966;27;66947;-38
2023/08/14 03:48:46;;;;;;;3.85;2.75;;;;;;;32.42;61.67;100785.56;5087951;27;69887;-39
2023/08/14 03:51:16;;;;;;;3.65;2.97;;;;;;;32.32;61.51;100758.19;5080695;27;65697;-39
2023/08/14 03:53:46;;;;;;;5.05;3.10;;;;;;;32.46;61.66;100781.38;5071851;27;70321;-38
2023/08/14 03:56:16;;;;;;;9.82;2.90;;;;;;;32.48;61.44;100781.13;5078290;27;65771;-39
2023/08/14 03:58:47;;;;;;;5.95;3.17;;;;;;;32.52;61.53;100786.94;5091103;27;70700;-38
2023/08/14 04:01:17;;;;;;;4.07;2.35;;;;;;;32.53;61.78;100777.72;5094631;27;66364;-39
2023/08/14 04:03:47;;;;;;;7.18;3.05;;;;;;;32.55;61.54;100762.03;5075895;27;69532;-38
2023/08/14 04:06:19;;;;;;;3.33;2.60;;;;;;;32.12;61.59;100687.09;5085168;27;65748;-37
2023/08/14 04:08:49;;;;;;;3.75;3.20;;;;;;;32.60;61.53;100754.00;5082696;27;70329;-39
2023/08/14 04:11:19;;;;;;;4.05;2.65;;;;;;;32.61;61.48;100767.34;5087882;27;65678;-40
2023/08/14 04:13:50;;;;;;;5.53;2.90;;;;;;;32.55;61.40;100751.16;5086218;27;69833;-39
2023/08/14 04:16:21;;;;;;;3.22;2.85;;;;;;;32.60;61.32;100752.13;5090630;27;65846;-38
2023/08/14 04:18:51;;;;;;;4.32;2.60;;;;;;;32.67;61.37;100752.81;5077204;27;70063;-39
2023/08/14 04:21:21;;;;;;;3.28;2.35;;;;;;;32.20;61.26;100670.47;5062626;27;66633;-39
2023/08/14 04:23:51;;;;;;;6.10;2.95;;;;;;;32.71;61.26;100750.47;5097674;27;70075;-38
2023/08/14 04:26:21;;;;;;;3.33;3.03;;;;;;;32.66;61.39;100731.34;5079408;27;66071;-39
2023/08/14 04:28:52;;;;;;;4.75;2.75;;;;;;;32.76;61.55;100750.56;5077794;27;69640;-39
2023/08/14 04:31:22;;;;;;;3.05;2.63;;;;;;;32.72;61.67;100719.53;5078804;27;65361;-38
2023/08/14 04:33:53;;;;;;;6.63;2.75;;;;;;;32.80;61.42;100732.75;5068963;28;69183;-38
2023/08/14 04:36:24;;;;;;;3.13;2.40;;;;;;;32.40;61.45;100656.56;5081259;27;65611;-38
2023/08/14 04:38:54;;;;;;;3.05;2.78;;;;;;;32.76;61.47;100703.56;5098927;27;70409;-38
2023/08/14 04:41:26;;;;;;;;;;;;;;;32.52;62.91;100719.88;5086033;27;65502;-38
2023/08/14 04:43:57;;;;;;;5.88;3.05;;;;;;;32.83;61.61;100726.84;5086285;27;70611;-38
2023/08/14 04:46:38;;;;;;;4.28;2.70;;;;;;;32.77;61.50;100700.63;5084912;27;66492;-38
2023/08/14 04:49:11;;;;;;;3.42;3.13;;;;;;;32.86;61.50;100699.19;5071159;27;70623;-38
2023/08/14 04:51:42;;;;;;;3.63;2.53;;;;;;;32.89;61.54;100700.59;5097407;27;66261;-37
2023/08/14 04:54:12;;;;;;;6.60;3.25;;;;;;;32.90;61.34;100694.94;5090196;27;70807;-38
2023/08/14 04:56:43;;;;;;;4.15;2.65;;;;;;;32.90;61.62;100694.94;5092027;27;64818;-38
2023/08/14 04:59:13;;;;;;;4.32;2.53;;;;;;;32.94;61.28;100684.41;5078156;27;70395;-37
2023/08/14 05:01:44;;;;;;;6.60;2.90;;;;;;;32.96;61.40;100676.88;5062026;28;66368;-38
2023/08/14 05:04:15;;;;;;;3.10;2.20;;;;;;;32.96;61.42;100660.56;5074941;27;70027;-39
2023/08/14 05:06:45;;;;;;;3.45;2.75;;;;;;;32.99;61.17;100662.81;5051723;28;66617;-38
2023/08/14 05:09:16;;;;;;;3.28;2.42;;;;;;;32.92;60.98;100648.50;5091389;27;70163;-38
2023/08/14 05:11:58;;;;;;;2.88;2.08;;;;;;;32.86;61.19;100639.44;5075244;27;65550;-38
2023/08/14 05:14:28;;;;;;;2.58;2.38;;;;;;;32.94;61.02;100647.22;5086015;27;69281;-37
2023/08/14 05:16:59;;;;;;;2.65;1.85;;;;;;;33.02;61.09;100648.75;5084759;27;66284;-40
2023/08/14 05:19:29;;;;;;;2.90;2.28;;;;;;;33.02;61.31;100647.94;5072548;27;70019;-38
2023/08/14 05:21:59;;;;;;;2.90;2.40;;;;;;;33.09;60.89;100645.91;5079844;27;66071;-39
2023/08/14 05:24:29;;;;;;;4.90;2.00;;;;;;;33.04;60.62;100640.34;5090674;27;69953;-39
2023/08/14 05:27:00;;;;;;;4.03;1.95;;;;;;;33.12;60.85;100646.22;5096579;27;65721;-39
2023/08/14 05:29:30;;;;;;;2.15;1.95;;;;;;;33.07;60.86;100629.84;5079235;27;68518;-39
2023/08/14 05:32:00;;;;;;;3.22;2.15;;;;;;;33.08;60.95;100625.22;5099351;27;66746;-40
2023/08/14 05:34:30;;;;;;;2.85;2.30;;;;;;;33.19;60.84;100624.38;5091746;27;69946;-39
2023/08/14 05:37:00;;;;;;;3.65;2.20;;;;;;;33.23;60.90;100617.34;5095308;27;66677;-39
2023/08/14 05:39:30;;;;;;;2.75;2.17;;;;;;;33.24;60.64;100619.03;5093823;27;69869;-39
2023/08/14 05:42:00;;;;;;;3.28;2.33;;;;;;;33.23;60.70;100617.34;5100730;27;65688;-38
2023/08/14 05:44:30;;;;;;;6.50;2.15;;;;;;;33.28;60.96;100608.47;5095778;27;70006;-40
2023/08/14 05:47:01;;;;;;;2.65;2.20;;;;;;;33.23;60.83;100584.75;5098164;27;66407;-38
2023/08/14 05:49:31;;;;;;;3.03;2.20;;;;;;;33.35;60.77;100599.13;5094549;27;69826;-38
2023/08/14 05:52:01;;;;;;;2.72;1.95;;;;;;;33.35;60.57;100588.25;5084243;27;66241;-38
2023/08/14 05:54:31;;;;;;;2.67;2.40;;;;;;;33.42;60.34;100579.94;5099898;27;70415;-40
2023/08/14 05:57:01;;;;;;;2.55;2.25;;;;;;;33.06;60.55;100502.34;5083884;27;66645;-39
2023/08/14 05:59:32;;;;;;;2.20;1.95;;;;;;;33.49;60.37;100567.00;5089938;27;70166;-39
2023/08/14 06:02:02;;;;;;;2.33;2.13;;;;;;;33.51;60.35;100566.75;5092017;27;66091;-40
2023/08/14 06:04:33;;;;;;;3.90;2.40;;;;;;;33.54;60.16;100558.97;5088694;27;70251;-38
2023/08/14 06:07:03;;;;;;;2.30;2.10;;;;;;;33.58;60.36;100548.41;5089239;27;66051;-39
2023/08/14 06:09:33;;;;;;;2.67;2.15;;;;;;;33.60;60.21;100549.00;5102578;27;69474;-39
2023/08/14 06:12:04;;;;;;;3.70;2.65;;;;;;;33.65;60.19;100537.38;5098285;27;66478;-40
2023/08/14 06:14:34;;;;;;;4.93;2.70;;;;;;;33.66;60.01;100528.97;5088105;27;69676;-38
2023/08/14 06:17:04;;;;;;;2.88;2.55;;;;;;;33.69;60.26;100528.47;5095137;27;66100;-38
2023/08/14 06:19:35;;;;;;;3.13;2.80;;;;;;;33.71;59.97;100518.19;5089270;27;70482;-40
2023/08/14 06:22:05;;;;;;;3.45;2.55;;;;;;;33.74;59.83;100514.97;5090359;27;65264;-39
2023/08/14 06:24:35;;;;;;;5.15;2.85;;;;;;;33.79;59.95;100512.31;5100284;27;69180;-40
2023/08/14 06:27:06;;;;;;;2.30;2.10;;;;;;;33.85;59.97;100509.66;5100850;27;65541;-40
2023/08/14 06:29:55;;;;;;;3.05;2.85;;;;;;;33.86;59.75;100506.69;5085435;27;69711;-39
2023/08/14 06:32:25;;;;;;;2.42;2.15;;;;;;;33.90;59.91;100496.13;5092738;27;66847;-38
2023/08/14 06:34:55;;;;;;;2.90;2.60;;;;;;;33.84;59.54;100480.81;5100160;27;70190;-39
2023/08/14 06:37:26;;;;;;;2.75;2.05;;;;;;;33.95;59.30;100498.91;5095837;27;66539;-39
2023/08/14 06:39:56;;;;;;;5.72;2.35;;;;;;;33.97;59.36;100494.88;5088728;27;69650;-40
2023/08/14 06:42:47;;;;;;;2.38;2.17;;;;;;;33.99;59.53;100478.28;5096135;27;66772;-39
2023/08/14 06:45:18;;;;;;;2.40;2.20;;;;;;;34.03;59.13;100482.97;5069786;28;70435;-39
2023/08/14 06:47:49;;;;;;;2.53;2.23;;;;;;;34.05;59.05;100476.50;5082941;27;66855;-38
2023/08/14 06:50:19;;;;;;;2.45;2.25;;;;;;;34.08;59.03;100463.22;5099641;27;69960;-38
2023/08/14 06:52:49;;;;;;;2.88;2.60;;;;;;;34.12;59.51;100461.63;5100322;27;65604;-39
2023/08/14 06:55:20;;;;;;;5.20;2.90;;;;;;;34.16;59.01;100464.69;5083963;27;69799;-39
2023/08/14 06:57:50;;;;;;;3.75;2.88;;;;;;;34.15;59.34;100465.75;5067786;27;64920;-39
2023/08/14 07:00:21;;;;;;;2.70;2.50;;;;;;;34.19;59.04;100462.28;5088110;27;69972;-39
2023/08/14 07:02:52;;;;;;;6.95;3.10;;;;;;;34.22;58.80;100460.94;5084810;27;66310;-38
2023/08/14 07:05:22;;;;;;;5.75;2.65;;;;;;;34.18;58.95;100451.63;5085603;27;69985;-40
2023/08/14 07:07:52;;;;;;;5.38;3.13;;;;;;;34.29;58.76;100456.13;5099600;27;65670;-40
2023/08/14 07:10:22;;;;;;;3.65;2.70;;;;;;;34.29;58.87;100444.41;5090709;27;69763;-38
2023/08/14 07:12:52;;;;;;;3.22;2.70;;;;;;;34.34;58.83;100445.28;5093064;27;65937;-39
2023/08/14 07:15:22;;;;;;;7.57;3.55;;;;;;;34.37;58.57;100441.22;5086271;27;69931;-39
2023/08/14 07:17:55;;;;;;;3.47;3.15;;;;;;;34.33;58.92;100423.78;5093488;27;65916;-38
2023/08/14 07:20:26;;;;;;;3.10;2.90;;;;;;;34.40;58.83;100432.56;5090506;27;69606;-38
2023/08/14 07:22:56;;;;;;;3.03;2.80;;;;;;;34.41;58.48;100426.88;5086596;27;66106;-39
2023/08/14 07:25:26;;;;;;;3.35;3.00;;;;;;;34.42;58.90;100422.25;5090656;27;69343;-39
2023/08/14 07:27:57;;;;;;;3.15;2.88;;;;;;;34.39;58.29;100395.53;5098990;27;66693;-39
2023/08/14 07:33:45;;;;;;;3.30;3.00;;;;;;;34.49;58.60;100411.94;5076796;27;66575;-39
2023/08/14 07:36:15;;;;;;;4.20;2.97;;;;;;;34.48;58.23;100413.03;5073969;27;69868;-38
2023/08/14 07:38:45;;;;;;;3.08;2.78;;;;;;;34.50;58.86;100416.34;5102261;27;66291;-40
2023/08/14 07:41:15;;;;;;;3.47;3.17;;;;;;;34.53;58.32;100401.38;5098858;27;69852;-39
2023/08/14 07:43:45;;;;;;;8.13;3.53;;;;;;;34.46;58.63;100374.34;5100537;27;65774;-38
2023/08/14 07:46:17;;;;;;;4.18;3.80;;;;;;;34.54;58.86;100387.50;5097774;27;69560;-40
2023/08/14 07:48:48;;;;;;;4.22;3.83;;;;;;;34.60;58.78;100381.06;5082025;27;66395;-39
2023/08/14 07:51:21;;;;;;;5.25;4.13;;;;;;;34.62;58.35;100384.34;5089695;27;69534;-39
2023/08/14 07:53:52;;;;;;;6.45;4.25;;;;;;;34.64;58.82;100365.84;5086203;27;65406;-40
2023/08/14 07:56:23;;;;;;;4.45;3.95;;;;;;;34.68;58.60;100345.16;5091618;27;70240;-40
2023/08/14 07:58:53;;;;;;;4.65;3.97;;;;;;;34.73;58.71;100329.97;5085950;27;65732;-40
2023/08/14 08:01:23;;;;;;;4.00;3.70;;;;;;;34.74;58.10;100323.41;5091863;27;69112;-40
2023/08/14 08:04:12;;;;;;;6.15;4.35;;;;;;;34.80;58.35;100319.66;5092090;27;66206;-40
2023/08/14 08:07:13;;;;;;;5.25;4.78;;;;;;;34.81;58.52;100330.31;5083673;27;71056;-39
2023/08/14 08:09:50;;;;;;;5.37;4.57;;;;;;;34.84;57.92;100342.59;5091096;27;66794;-41
2023/08/14 08:12:49;;;;;;;4.15;3.83;;;;;;;34.87;58.26;100358.41;5091888;27;70322;-38
2023/08/14 08:15:19;;;;;;;5.90;4.03;;;;;;;34.82;58.29;100333.84;5093658;27;66361;-40
2023/08/14 08:17:49;;;;;;;4.63;4.22;;;;;;;34.91;58.54;100337.75;5094204;27;69478;-40
2023/08/14 08:20:20;;;;;;;6.50;4.00;;;;;;;34.91;58.46;100324.13;5091580;27;66345;-40
2023/08/14 08:22:50;;;;;;;4.70;4.30;;;;;;;34.82;58.47;100310.13;5087539;27;69315;-40
2023/08/14 08:25:21;;;;;;;4.60;4.20;;;;;;;34.94;58.16;100350.84;5093177;27;65745;-40
2023/08/14 08:27:51;;;;;;;4.40;4.00;;;;;;;34.92;58.18;100350.28;5099913;27;70525;-43
2023/08/14 08:30:21;;;;;;;4.00;3.70;;;;;;;34.92;57.94;100328.47;5085359;27;65762;-40
2023/08/14 08:32:51;;;;;;;4.40;4.10;;;;;;;34.91;58.46;100321.41;5092302;27;70620;-40
2023/08/14 08:35:30;;;;;;;6.20;4.75;;;;;;;34.77;58.55;100282.03;5080548;27;66264;-41
2023/08/14 08:38:10;;;;;;;4.43;4.03;;;;;;;34.84;58.16;100299.00;5092833;27;70267;-41
2023/08/14 08:40:49;;;;;;;4.47;4.10;;;;;;;34.32;58.49;100231.53;5075686;27;64410;-40
2023/08/14 08:43:22;;;;;;;4.97;3.90;;;;;;;34.37;58.54;100261.53;5095689;27;69284;-41
2023/08/14 08:45:58;;;;;;;6.53;3.97;;;;;;;34.83;58.66;100330.88;5095209;27;66464;-40
2023/08/14 08:48:33;;;;;;;3.80;3.50;;;;;;;34.85;58.55;100323.25;5081363;27;70477;-39
2023/08/14 08:51:05;;;;;;;3.88;3.58;;;;;;;34.34;58.40;100246.53;5097761;27;66425;-40
2023/08/14 08:53:36;;;;;;;3.97;3.67;;;;;;;34.34;58.18;100278.38;5096172;27;70061;-38
2023/08/14 08:56:07;;;;;;;4.30;3.90;;;;;;;34.73;58.63;100395.34;5096365;27;65101;-40
2023/08/14 08:58:38;;;;;;;4.00;3.70;;;;;;;34.59;58.63;100384.03;5081207;27;69003;-38
2023/08/14 09:01:11;;;;;;;6.00;4.30;;;;;;;34.68;58.25;100363.41;5092876;27;66220;-39
2023/08/14 09:03:42;;;;;;;4.30;3.90;;;;;;;34.80;58.39;100344.16;5078996;27;69976;-40
2023/08/14 09:06:14;;;;;;;4.13;3.83;;;;;;;34.79;58.30;100340.63;5092828;27;65367;-40
2023/08/14 09:08:44;;;;;;;4.35;3.95;;;;;;;34.80;58.33;100363.25;5102510;27;70108;-39
2023/08/14 09:11:14;;;;;;;7.05;3.67;;;;;;;34.79;58.77;100399.75;5092322;27;65779;-39
2023/08/14 09:13:45;;;;;;;5.55;3.58;;;;;;;34.78;58.48;100426.19;5097700;27;67789;-40
2023/08/14 09:16:16;;;;;;;5.10;3.92;;;;;;;34.75;58.77;100431.34;5100975;27;67245;-39
2023/08/14 09:18:46;;;;;;;4.32;3.67;;;;;;;34.74;58.36;100435.94;5080276;27;70048;-39
2023/08/14 09:21:18;;;;;;;5.78;3.75;;;;;;;34.73;58.67;100444.38;5096357;27;66261;-39
2023/08/14 09:23:52;;;;;;;4.13;3.72;;;;;;;34.71;58.93;100460.97;5082994;27;70025;-39
2023/08/14 09:26:23;;;;;;;4.60;4.13;;;;;;;34.72;58.98;100489.06;5096635;27;66635;-41
2023/08/14 09:28:53;;;;;;;4.35;3.53;;;;;;;34.69;58.95;100488.50;5091785;27;69614;-40
2023/08/14 09:31:27;;;;;;;3.85;3.58;;;;;;;34.68;58.83;100473.19;5101004;27;65724;-38
2023/08/14 09:34:32;;;;;;;4.10;3.75;;;;;;;34.41;58.53;100404.25;5093479;27;69941;-39
2023/08/14 09:37:05;;;;;;;4.30;3.83;;;;;;;34.65;58.81;100457.38;5096675;27;66567;-39
2023/08/14 09:40:09;;;;;;;3.83;3.42;;;;;;;34.59;59.13;100443.97;5096668;27;70239;-40
2023/08/14 09:42:38;;;;;;;4.13;3.72;;;;;;;34.60;58.51;100456.50;5085915;27;66264;-39
2023/08/14 09:45:17;;;;;;;3.38;3.08;;;;;;;34.16;59.23;100392.00;5082106;27;69962;-39
2023/08/14 09:47:48;;;;;;;4.88;3.10;;;;;;;34.59;59.03;100457.59;5092946;27;68509;-40
2023/08/14 09:50:21;;;;;;;5.53;3.22;;;;;;;34.48;59.18;100421.22;5102144;27;70546;-39
2023/08/14 09:52:51;;;;;;;4.82;4.43;;;;;;;34.45;59.52;100427.16;5088815;27;65360;-40
2023/08/14 09:55:21;;;;;;;6.40;4.20;;;;;;;34.54;58.84;100452.03;5089324;27;70172;-40
2023/08/14 09:57:53;;;;;;;5.83;4.53;;;;;;;34.49;59.09;100450.06;5103286;27;65649;-40
2023/08/14 10:00:29;;;;;;;5.15;4.63;;;;;;;34.32;59.18;100417.47;5096514;27;70013;-40
2023/08/14 10:03:01;;;;;;;5.65;5.18;;;;;;;33.97;59.38;100355.28;5089350;27;65839;-38
2023/08/14 10:05:33;;;;;;;5.63;5.05;;;;;;;34.44;59.61;100436.44;5089008;27;69345;-39
2023/08/14 10:08:06;;;;;;;5.93;5.53;;;;;;;34.38;59.61;100453.75;5091639;27;65336;-39
2023/08/14 10:10:56;;;;;;;6.03;5.53;;;;;;;34.38;60.22;100481.00;5085475;27;70185;-39
2023/08/14 10:13:52;;;;;;;5.43;5.03;;;;;;;33.83;60.26;100397.56;5074154;27;66682;-40
2023/08/14 10:16:28;;;;;;;9.18;5.88;;;;;;;34.34;60.02;100490.75;5088498;27;69831;-41
2023/08/14 10:19:03;;;;;;;6.50;5.20;;;;;;;33.90;59.98;100414.50;5093630;27;66091;-40
2023/08/14 10:21:35;;;;;;;7.07;5.85;;;;;;;34.30;60.27;100500.50;5086388;27;70587;-39
2023/08/14 10:24:07;;;;;;;7.72;6.38;;;;;;;34.30;60.01;100509.50;5087755;27;65462;-39
2023/08/14 10:26:40;;;;;;;6.90;6.40;;;;;;;34.17;60.27;100507.97;5082794;27;70318;-39
2023/08/14 10:29:14;;;;;;;10.85;6.65;;;;;;;34.25;60.76;100537.47;5090634;27;65140;-40
2023/08/14 10:31:46;;;;;;;6.90;6.37;;;;;;;34.13;60.42;100522.31;5080808;27;69458;-38
2023/08/14 10:34:17;;;;;;;6.72;6.13;;;;;;;34.20;60.60;100526.50;5084320;27;65397;-40
2023/08/14 10:36:51;;;;;;;7.38;6.78;;;;;;;34.15;60.69;100514.72;5083778;27;69226;-40
2023/08/14 10:39:34;;;;;;;7.07;6.57;;;;;;;34.02;61.27;100502.31;5090854;27;65895;-41
2023/08/14 10:42:05;;;;;;;8.15;6.53;;;;;;;34.16;61.11;100511.78;5088484;27;69248;-41
2023/08/14 10:44:36;;;;;;;7.80;6.53;;;;;;;33.70;60.93;100445.78;5098239;27;65639;-42
2023/08/14 10:47:12;;;;;;;11.35;6.78;;;;;;;33.74;61.16;100454.25;5097610;27;70097;-40
2023/08/14 10:49:49;;;;;;;7.35;6.65;;;;;;;34.11;61.46;100536.19;5092127;27;66167;-39
2023/08/14 10:52:23;;;;;;;7.38;6.82;;;;;;;34.10;61.40;100536.44;5093773;27;70455;-41
2023/08/14 10:54:53;;;;;;;7.28;6.60;;;;;;;34.09;61.26;100542.97;5086593;27;66507;-41
2023/08/14 10:57:32;;;;;;;7.25;6.70;;;;;;;34.01;61.56;100541.47;5100512;27;70622;-39
2023/08/14 11:00:02;;;;;;;7.32;6.60;;;;;;;34.01;61.57;100541.47;5088392;27;65605;-38
2023/08/14 11:02:41;;;;;;;8.27;7.68;;;;;;;33.95;61.78;100546.00;5087558;27;69947;-40
2023/08/14 11:05:17;;;;;;;7.30;6.63;;;;;;;33.97;61.95;100540.31;5097317;27;65326;-40
2023/08/14 11:08:00;;;;;;;7.93;7.18;;;;;;;33.90;62.07;100550.53;5085496;27;69940;-40
2023/08/14 11:10:31;;;;;;;7.85;7.07;;;;;;;33.94;61.74;100535.38;5095236;27;65934;-42
2023/08/14 11:13:03;;;;;;;8.57;6.85;;;;;;;33.91;62.18;100525.00;5085453;27;70300;-40
2023/08/14 11:15:36;;;;;;;7.80;7.05;;;;;;;33.80;61.91;100524.84;5079495;27;66238;-41
2023/08/14 11:22:16;;;;;;;7.32;6.75;;;;;;;33.81;62.16;100526.47;5083375;27;66582;-40
2023/08/14 11:24:48;;;;;;;7.07;6.47;;;;;;;33.81;61.93;100521.03;5095648;27;69089;-41
2023/08/14 11:27:18;;;;;;;;;;;;;;;33.47;63.84;100524.81;5085575;27;66214;-40
2023/08/14 11:29:49;;;;;;;7.75;6.95;;;;;;;33.62;62.51;100514.19;5098315;27;70547;-40
2023/08/14 11:32:26;;;;;;;6.88;6.38;;;;;;;33.77;61.90;100527.25;5098743;27;66755;-40
2023/08/14 11:34:57;;;;;;;7.75;7.03;;;;;;;33.38;62.22;100479.00;5095814;27;69248;-39
2023/08/14 11:37:28;;;;;;;8.37;7.47;;;;;;;33.70;61.96;100532.81;5097658;27;65380;-39
2023/08/14 11:40:10;;;;;;;8.00;7.30;;;;;;;33.33;62.97;100491.69;5086519;27;69602;-39
2023/08/14 11:42:42;;;;;;;7.40;6.80;;;;;;;33.71;62.48;100548.09;5096123;27;66440;-42
2023/08/14 11:45:13;;;;;;;7.97;7.28;;;;;;;33.68;62.37;100548.56;5082282;27;70648;-39
2023/08/14 11:47:47;;;;;;;7.60;6.90;;;;;;;33.70;62.43;100562.75;5086188;27;65825;-40
2023/08/14 11:50:19;;;;;;;9.00;7.63;;;;;;;33.68;62.27;100575.75;5057108;27;69187;-39
2023/08/14 11:52:51;;;;;;;9.32;7.53;;;;;;;33.65;62.86;100578.97;5092500;27;66409;-41
2023/08/14 11:55:22;;;;;;;7.70;7.10;;;;;;;33.56;62.64;100567.69;5085485;27;69685;-41
2023/08/14 11:57:52;;;;;;;7.05;6.40;;;;;;;33.61;62.35;100591.44;5093278;27;66548;-38
2023/08/14 12:00:23;;;;;;;7.40;6.80;;;;;;;33.61;62.76;100593.34;5085506;27;69618;-40